sensor_id;sensor_type;location;lat;lon;timestamp;pressure;altitude;pressure_sealevel;temperature;humidity
57827;BME280;43656;57.746;11.780;2023-03-24T00:01:51;99468.47;;;9.75;100.00
57827;BME280;43656;57.746;11.780;2023-03-24T00:04:17;99491.50;;;9.82;100.00
57827;BME280;43656;57.746;11.780;2023-03-24T00:06:43;99494.44;;;9.81;100.00
57827;BME280;43656;57.746;11.780;2023-03-24T00:09:09;99506.00;;;9.81;100.00
57827;BME280;43656;57.746;11.780;2023-03-24T00:11:35;99498.53;;;9.83;100.00
57827;BME280;43656;57.746;11.780;2023-03-24T00:14:01;99493.81;;;9.79;100.00
57827;BME280;43656;57.746;11.780;2023-03-24T00:16:27;99464.34;;;9.72;100.00
57827;BME280;43656;57.746;11.780;2023-03-24T00:18:53;99485.22;;;9.88;100.00
57827;BME280;43656;57.746;11.780;2023-03-24T00:21:19;99479.34;;;9.80;100.00
57827;BME280;43656;57.746;11.780;2023-03-24T00:23:49;99479.25;;;9.86;100.00
57827;BME280;43656;57.746;11.780;2023-03-24T00:26:15;99480.22;;;9.92;100.00
57827;BME280;43656;57.746;11.780;2023-03-24T00:28:43;99490.16;;;9.92;100.00
57827;BME280;43656;57.746;11.780;2023-03-24T00:31:10;99454.50;;;9.84;100.00
57827;BME280;43656;57.746;11.780;2023-03-24T00:33:36;99472.16;;;9.92;100.00
57827;BME280;43656;57.746;11.780;2023-03-24T00:36:03;99470.97;;;9.88;100.00
57827;BME280;43656;57.746;11.780;2023-03-24T00:38:30;99468.91;;;9.90;100.00
57827;BME280;43656;57.746;11.780;2023-03-24T00:40:56;99471.28;;;9.80;100.00
57827;BME280;43656;57.746;11.780;2023-03-24T00:43:23;99483.22;;;9.84;100.00
57827;BME280;43656;57.746;11.780;2023-03-24T00:45:48;99485.09;;;9.83;100.00
57827;BME280;43656;57.746;11.780;2023-03-24T00:48:17;99493.47;;;9.75;100.00
57827;BME280;43656;57.746;11.780;2023-03-24T00:50:46;99480.47;;;9.72;100.00
57827;BME280;43656;57.746;11.780;2023-03-24T00:53:13;99480.38;;;9.79;100.00
57827;BME280;43656;57.746;11.780;2023-03-24T00:55:41;99487.97;;;9.70;100.00
57827;BME280;43656;57.746;11.780;2023-03-24T00:58:06;99479.34;;;9.80;100.00
57827;BME280;43656;57.746;11.780;2023-03-24T01:00:32;99472.84;;;9.87;100.00
57827;BME280;43656;57.746;11.780;2023-03-24T01:02:57;99468.81;;;9.78;100.00
57827;BME280;43656;57.746;11.780;2023-03-24T01:05:28;99463.63;;;9.83;100.00
57827;BME280;43656;57.746;11.780;2023-03-24T01:07:56;99441.00;;;9.73;100.00
57827;BME280;43656;57.746;11.780;2023-03-24T01:10:22;99451.81;;;9.84;100.00
57827;BME280;43656;57.746;11.780;2023-03-24T01:12:52;99451.19;;;9.82;100.00
57827;BME280;43656;57.746;11.780;2023-03-24T01:15:20;99445.16;;;9.87;100.00
57827;BME280;43656;57.746;11.780;2023-03-24T01:17:47;99418.47;;;9.74;100.00
57827;BME280;43656;57.746;11.780;2023-03-24T01:20:14;99427.19;;;9.87;100.00
57827;BME280;43656;57.746;11.780;2023-03-24T01:22:41;99416.63;;;9.86;100.00
57827;BME280;43656;57.746;11.780;2023-03-24T01:25:14;99414.66;;;9.81;100.00
57827;BME280;43656;57.746;11.780;2023-03-24T01:27:42;99406.00;;;9.79;100.00
57827;BME280;43656;57.746;11.780;2023-03-24T01:30:09;99411.69;;;9.71;100.00
57827;BME280;43656;57.746;11.780;2023-03-24T01:32:35;99426.56;;;9.85;100.00
57827;BME280;43656;57.746;11.780;2023-03-24T01:35:01;99433.81;;;9.85;100.00
57827;BME280;43656;57.746;11.780;2023-03-24T01:37:27;99429.41;;;9.91;100.00
57827;BME280;43656;57.746;11.780;2023-03-24T01:39:52;99406.00;;;9.79;100.00
57827;BME280;43656;57.746;11.780;2023-03-24T01:42:21;99413.22;;;9.79;100.00
57827;BME280;43656;57.746;11.780;2023-03-24T01:44:49;99410.91;;;9.82;100.00
57827;BME280;43656;57.746;11.780;2023-03-24T01:47:14;99406.69;;;9.75;100.00
57827;BME280;43656;57.746;11.780;2023-03-24T01:49:53;99403.19;;;9.74;100.00
57827;BME280;43656;57.746;11.780;2023-03-24T01:52:27;99397.66;;;9.69;100.00
57827;BME280;43656;57.746;11.780;2023-03-24T01:55:01;99389.13;;;9.60;100.00
57827;BME280;43656;57.746;11.780;2023-03-24T01:57:30;99390.06;;;9.66;100.00
57827;BME280;43656;57.746;11.780;2023-03-24T01:59:59;99398.56;;;9.63;100.00
57827;BME280;43656;57.746;11.780;2023-03-24T02:02:28;99384.19;;;9.57;100.00
57827;BME280;43656;57.746;11.780;2023-03-24T02:05:02;99384.47;;;9.68;100.00
57827;BME280;43656;57.746;11.780;2023-03-24T02:07:34;99384.69;;;9.66;100.00
57827;BME280;43656;57.746;11.780;2023-03-24T02:10:06;99376.78;;;9.71;100.00
57827;BME280;43656;57.746;11.780;2023-03-24T02:12:32;99374.03;;;9.59;100.00
57827;BME280;43656;57.746;11.780;2023-03-24T02:14:58;99380.81;;;9.62;100.00
57827;BME280;43656;57.746;11.780;2023-03-24T02:17:35;99355.31;;;9.53;100.00
57827;BME280;43656;57.746;11.780;2023-03-24T02:33:50;99342.91;;;9.70;100.00
57827;BME280;43656;57.746;11.780;2023-03-24T02:36:57;99336.34;;;9.66;100.00
57827;BME280;43656;57.746;11.780;2023-03-24T02:42:03;99329.34;;;9.65;100.00
57827;BME280;43656;57.746;11.780;2023-03-24T02:44:43;99328.53;;;9.64;100.00
57827;BME280;43656;57.746;11.780;2023-03-24T02:47:19;99321.28;;;9.65;100.00
57827;BME280;43656;57.746;11.780;2023-03-24T02:55:43;99304.44;;;9.58;100.00
57827;BME280;43656;57.746;11.780;2023-03-24T02:58:21;99289.56;;;9.44;100.00
57827;BME280;43656;57.746;11.780;2023-03-24T03:01:01;99290.66;;;9.54;100.00
57827;BME280;43656;57.746;11.780;2023-03-24T03:03:33;99297.81;;;9.60;100.00
57827;BME280;43656;57.746;11.780;2023-03-24T03:08:33;99283.88;;;9.52;100.00
57827;BME280;43656;57.746;11.780;2023-03-24T03:11:02;99285.31;;;9.54;100.00
57827;BME280;43656;57.746;11.780;2023-03-24T03:13:49;99282.81;;;9.53;100.00
57827;BME280;43656;57.746;11.780;2023-03-24T03:16:29;99262.72;;;9.44;100.00
57827;BME280;43656;57.746;11.780;2023-03-24T03:19:06;99233.88;;;9.39;100.00
57827;BME280;43656;57.746;11.780;2023-03-24T03:21:39;99276.66;;;9.52;100.00
57827;BME280;43656;57.746;11.780;2023-03-24T03:24:39;99267.53;;;9.53;100.00
57827;BME280;43656;57.746;11.780;2023-03-24T03:27:16;99260.88;;;9.56;100.00
57827;BME280;43656;57.746;11.780;2023-03-24T03:29:56;99247.56;;;9.49;100.00
57827;BME280;43656;57.746;11.780;2023-03-24T03:32:28;99248.16;;;9.51;100.00
57827;BME280;43656;57.746;11.780;2023-03-24T03:35:15;99240.69;;;9.53;100.00
57827;BME280;43656;57.746;11.780;2023-03-24T03:37:58;99244.88;;;9.49;100.00
57827;BME280;43656;57.746;11.780;2023-03-24T03:40:41;99233.09;;;9.50;100.00
57827;BME280;43656;57.746;11.780;2023-03-24T03:43:08;99236.16;;;9.54;100.00
57827;BME280;43656;57.746;11.780;2023-03-24T03:45:33;99231.13;;;9.57;100.00
57827;BME280;43656;57.746;11.780;2023-03-24T03:48:00;99205.78;;;9.41;100.00
57827;BME280;43656;57.746;11.780;2023-03-24T03:50:26;99231.94;;;9.58;100.00
57827;BME280;43656;57.746;11.780;2023-03-24T03:52:52;99212.66;;;9.49;100.00
57827;BME280;43656;57.746;11.780;2023-03-24T03:55:18;99223.75;;;9.53;100.00
57827;BME280;43656;57.746;11.780;2023-03-24T03:57:44;99221.53;;;9.50;100.00
57827;BME280;43656;57.746;11.780;2023-03-24T04:00:18;99211.25;;;9.47;100.00
57827;BME280;43656;57.746;11.780;2023-03-24T04:08:05;99200.97;;;9.44;100.00
57827;BME280;43656;57.746;11.780;2023-03-24T04:16:26;99194.53;;;9.33;100.00
57827;BME280;43656;57.746;11.780;2023-03-24T04:26:57;99170.63;;;9.31;100.00
57827;BME280;43656;57.746;11.780;2023-03-24T04:29:43;99168.16;;;9.30;100.00
57827;BME280;43656;57.746;11.780;2023-03-24T04:35:32;99149.81;;;9.27;100.00
57827;BME280;43656;57.746;11.780;2023-03-24T04:38:03;99154.53;;;9.31;100.00
57827;BME280;43656;57.746;11.780;2023-03-24T04:40:32;99138.28;;;9.26;100.00
57827;BME280;43656;57.746;11.780;2023-03-24T04:43:02;99144.34;;;9.33;100.00
57827;BME280;43656;57.746;11.780;2023-03-24T04:45:30;99121.72;;;9.17;100.00
57827;BME280;43656;57.746;11.780;2023-03-24T04:48:00;99129.41;;;9.26;100.00
57827;BME280;43656;57.746;11.780;2023-03-24T04:50:32;99125.56;;;9.33;100.00
57827;BME280;43656;57.746;11.780;2023-03-24T04:53:00;99128.13;;;9.40;100.00
57827;BME280;43656;57.746;11.780;2023-03-24T04:58:13;99097.00;;;9.27;100.00
57827;BME280;43656;57.746;11.780;2023-03-24T05:00:39;99111.34;;;9.45;100.00
57827;BME280;43656;57.746;11.780;2023-03-24T05:03:05;99105.38;;;9.43;100.00
57827;BME280;43656;57.746;11.780;2023-03-24T05:05:31;99098.03;;;9.38;100.00
57827;BME280;43656;57.746;11.780;2023-03-24T05:07:57;99066.41;;;9.28;100.00
57827;BME280;43656;57.746;11.780;2023-03-24T05:10:23;99093.72;;;9.49;100.00
57827;BME280;43656;57.746;11.780;2023-03-24T05:12:49;99066.97;;;9.42;100.00
57827;BME280;43656;57.746;11.780;2023-03-24T05:15:14;99074.31;;;9.47;100.00
57827;BME280;43656;57.746;11.780;2023-03-24T05:17:40;99081.81;;;9.45;100.00
57827;BME280;43656;57.746;11.780;2023-03-24T05:20:06;99080.75;;;9.46;100.00
57827;BME280;43656;57.746;11.780;2023-03-24T05:22:36;99066.28;;;9.47;100.00
57827;BME280;43656;57.746;11.780;2023-03-24T05:25:02;99065.47;;;9.46;100.00
57827;BME280;43656;57.746;11.780;2023-03-24T05:27:27;99061.75;;;9.47;100.00
57827;BME280;43656;57.746;11.780;2023-03-24T05:29:53;99057.66;;;9.45;100.00
57827;BME280;43656;57.746;11.780;2023-03-24T05:32:18;99058.47;;;9.45;100.00
57827;BME280;43656;57.746;11.780;2023-03-24T05:34:44;99051.22;;;9.46;100.00
57827;BME280;43656;57.746;11.780;2023-03-24T05:37:09;99049.59;;;9.45;100.00
57827;BME280;43656;57.746;11.780;2023-03-24T05:39:37;99039.53;;;9.40;100.00
57827;BME280;43656;57.746;11.780;2023-03-24T05:42:02;99017.03;;;9.29;100.00
57827;BME280;43656;57.746;11.780;2023-03-24T05:44:28;99019.38;;;9.37;100.00
57827;BME280;43656;57.746;11.780;2023-03-24T05:46:53;99028.69;;;9.47;100.00
57827;BME280;43656;57.746;11.780;2023-03-24T05:49:19;99019.34;;;9.49;100.00
57827;BME280;43656;57.746;11.780;2023-03-24T05:51:44;99013.84;;;9.56;100.00
57827;BME280;43656;57.746;11.780;2023-03-24T05:54:09;99005.22;;;9.54;100.00
57827;BME280;43656;57.746;11.780;2023-03-24T05:56:35;98998.69;;;9.61;100.00
57827;BME280;43656;57.746;11.780;2023-03-24T05:59:00;98995.72;;;9.63;100.00
57827;BME280;43656;57.746;11.780;2023-03-24T06:01:26;99002.41;;;9.60;100.00
57827;BME280;43656;57.746;11.780;2023-03-24T06:03:53;98997.38;;;9.64;100.00
57827;BME280;43656;57.746;11.780;2023-03-24T06:06:18;98993.97;;;9.69;100.00
57827;BME280;43656;57.746;11.780;2023-03-24T06:08:43;98995.94;;;9.73;100.00
57827;BME280;43656;57.746;11.780;2023-03-24T06:11:10;98975.56;;;9.60;100.00
57827;BME280;43656;57.746;11.780;2023-03-24T06:13:36;98976.47;;;9.66;100.00
57827;BME280;43656;57.746;11.780;2023-03-24T06:16:01;98985.69;;;9.70;100.00
57827;BME280;43656;57.746;11.780;2023-03-24T06:18:27;98972.84;;;9.72;100.00
57827;BME280;43656;57.746;11.780;2023-03-24T06:20:55;98964.56;;;9.62;100.00
57827;BME280;43656;57.746;11.780;2023-03-24T06:23:26;98956.63;;;9.67;100.00
57827;BME280;43656;57.746;11.780;2023-03-24T06:25:53;98966.75;;;9.77;100.00
57827;BME280;43656;57.746;11.780;2023-03-24T06:28:20;98957.06;;;9.76;100.00
57827;BME280;43656;57.746;11.780;2023-03-24T06:30:47;98948.47;;;9.62;100.00
57827;BME280;43656;57.746;11.780;2023-03-24T06:33:13;98949.59;;;9.78;100.00
57827;BME280;43656;57.746;11.780;2023-03-24T06:35:39;98949.81;;;9.76;100.00
57827;BME280;43656;57.746;11.780;2023-03-24T06:38:05;98943.53;;;9.71;100.00
57827;BME280;43656;57.746;11.780;2023-03-24T06:40:32;98939.66;;;9.78;100.00
57827;BME280;43656;57.746;11.780;2023-03-24T06:42:58;98941.88;;;9.81;100.00
57827;BME280;43656;57.746;11.780;2023-03-24T06:45:24;98936.16;;;9.78;100.00
57827;BME280;43656;57.746;11.780;2023-03-24T06:47:53;98923.88;;;9.82;100.00
57827;BME280;43656;57.746;11.780;2023-03-24T06:50:22;98909.19;;;9.73;100.00
57827;BME280;43656;57.746;11.780;2023-03-24T06:52:51;98912.53;;;9.80;100.00
57827;BME280;43656;57.746;11.780;2023-03-24T06:55:18;98896.41;;;9.80;100.00
57827;BME280;43656;57.746;11.780;2023-03-24T06:57:43;98911.84;;;9.84;100.00
57827;BME280;43656;57.746;11.780;2023-03-24T07:00:09;98897.94;;;9.87;100.00
57827;BME280;43656;57.746;11.780;2023-03-24T07:02:35;98894.56;;;9.80;100.00
57827;BME280;43656;57.746;11.780;2023-03-24T07:05:02;98886.03;;;9.83;100.00
57827;BME280;43656;57.746;11.780;2023-03-24T07:07:31;98872.44;;;9.90;100.00
57827;BME280;43656;57.746;11.780;2023-03-24T07:09:57;98874.31;;;9.89;100.00
57827;BME280;43656;57.746;11.780;2023-03-24T07:12:22;98864.13;;;9.92;100.00
57827;BME280;43656;57.746;11.780;2023-03-24T07:14:48;98851.50;;;9.92;100.00
57827;BME280;43656;57.746;11.780;2023-03-24T07:17:13;98860.00;;;10.01;100.00
57827;BME280;43656;57.746;11.780;2023-03-24T07:19:39;98824.16;;;9.95;100.00
57827;BME280;43656;57.746;11.780;2023-03-24T07:22:04;98843.56;;;10.14;100.00
57827;BME280;43656;57.746;11.780;2023-03-24T07:24:33;98831.34;;;10.23;100.00
57827;BME280;43656;57.746;11.780;2023-03-24T07:26:59;98827.50;;;10.19;100.00
57827;BME280;43656;57.746;11.780;2023-03-24T07:29:25;98820.69;;;10.28;100.00
57827;BME280;43656;57.746;11.780;2023-03-24T07:31:50;98801.38;;;10.31;100.00
57827;BME280;43656;57.746;11.780;2023-03-24T07:34:19;98806.59;;;10.38;100.00
57827;BME280;43656;57.746;11.780;2023-03-24T07:36:45;98783.69;;;10.35;100.00
57827;BME280;43656;57.746;11.780;2023-03-24T07:39:11;98787.09;;;10.48;100.00
57827;BME280;43656;57.746;11.780;2023-03-24T07:41:37;98763.47;;;10.50;100.00
57827;BME280;43656;57.746;11.780;2023-03-24T07:44:03;98754.97;;;10.58;100.00
57827;BME280;43656;57.746;11.780;2023-03-24T07:46:28;98749.28;;;10.76;100.00
57827;BME280;43656;57.746;11.780;2023-03-24T07:48:54;98742.38;;;10.86;100.00
57827;BME280;43656;57.746;11.780;2023-03-24T07:51:19;98719.69;;;10.76;100.00
57827;BME280;43656;57.746;11.780;2023-03-24T07:53:45;98732.25;;;10.93;100.00
57827;BME280;43656;57.746;11.780;2023-03-24T07:56:12;98739.38;;;11.04;100.00
57827;BME280;43656;57.746;11.780;2023-03-24T07:58:38;98735.09;;;11.08;100.00
57827;BME280;43656;57.746;11.780;2023-03-24T08:01:06;98728.72;;;11.14;100.00
57827;BME280;43656;57.746;11.780;2023-03-24T08:03:33;98730.53;;;11.09;100.00
57827;BME280;43656;57.746;11.780;2023-03-24T08:06:00;98702.50;;;11.04;100.00
57827;BME280;43656;57.746;11.780;2023-03-24T08:08:26;98706.56;;;10.80;100.00
57827;BME280;43656;57.746;11.780;2023-03-24T08:10:51;98700.09;;;10.81;100.00
57827;BME280;43656;57.746;11.780;2023-03-24T08:13:17;98689.72;;;10.68;100.00
57827;BME280;43656;57.746;11.780;2023-03-24T08:15:42;98683.66;;;10.55;100.00
57827;BME280;43656;57.746;11.780;2023-03-24T08:18:08;98683.16;;;10.58;100.00
57827;BME280;43656;57.746;11.780;2023-03-24T08:20:33;98664.50;;;10.47;100.00
57827;BME280;43656;57.746;11.780;2023-03-24T08:22:59;98660.16;;;10.68;100.00
57827;BME280;43656;57.746;11.780;2023-03-24T08:25:26;98648.31;;;10.69;100.00
57827;BME280;43656;57.746;11.780;2023-03-24T08:27:53;98646.19;;;10.71;100.00
57827;BME280;43656;57.746;11.780;2023-03-24T08:30:21;98633.13;;;10.79;100.00
57827;BME280;43656;57.746;11.780;2023-03-24T08:32:49;98629.94;;;10.61;100.00
57827;BME280;43656;57.746;11.780;2023-03-24T08:35:17;98624.56;;;10.61;100.00
57827;BME280;43656;57.746;11.780;2023-03-24T08:37:44;98626.56;;;10.70;100.00
57827;BME280;43656;57.746;11.780;2023-03-24T08:40:12;98611.78;;;10.73;100.00
57827;BME280;43656;57.746;11.780;2023-03-24T08:42:41;98604.53;;;10.73;100.00
57827;BME280;43656;57.746;11.780;2023-03-24T08:45:09;98601.06;;;10.51;100.00
57827;BME280;43656;57.746;11.780;2023-03-24T08:47:35;98593.41;;;10.38;100.00
57827;BME280;43656;57.746;11.780;2023-03-24T08:50:01;98577.25;;;10.38;100.00
57827;BME280;43656;57.746;11.780;2023-03-24T08:52:26;98566.69;;;10.53;100.00
57827;BME280;43656;57.746;11.780;2023-03-24T08:54:51;98552.06;;;10.44;100.00
57827;BME280;43656;57.746;11.780;2023-03-24T08:57:17;98561.69;;;10.67;100.00
57827;BME280;43656;57.746;11.780;2023-03-24T08:59:43;98556.28;;;10.94;100.00
57827;BME280;43656;57.746;11.780;2023-03-24T09:02:10;98545.56;;;10.99;100.00
57827;BME280;43656;57.746;11.780;2023-03-24T09:04:36;98539.25;;;10.83;100.00
57827;BME280;43656;57.746;11.780;2023-03-24T09:07:02;98518.72;;;10.45;100.00
57827;BME280;43656;57.746;11.780;2023-03-24T09:09:28;98519.91;;;10.54;100.00
57827;BME280;43656;57.746;11.780;2023-03-24T09:11:54;98514.94;;;11.05;100.00
57827;BME280;43656;57.746;11.780;2023-03-24T09:14:19;98513.38;;;11.14;100.00
57827;BME280;43656;57.746;11.780;2023-03-24T09:16:47;98503.72;;;11.18;100.00
57827;BME280;43656;57.746;11.780;2023-03-24T09:19:13;98499.41;;;11.22;100.00
57827;BME280;43656;57.746;11.780;2023-03-24T09:21:43;98481.66;;;11.16;100.00
57827;BME280;43656;57.746;11.780;2023-03-24T09:24:08;98486.59;;;11.35;100.00
57827;BME280;43656;57.746;11.780;2023-03-24T09:26:33;98475.75;;;11.19;100.00
57827;BME280;43656;57.746;11.780;2023-03-24T09:28:59;98474.38;;;11.22;100.00
57827;BME280;43656;57.746;11.780;2023-03-24T09:31:25;98463.59;;;11.17;100.00
57827;BME280;43656;57.746;11.780;2023-03-24T09:33:50;98461.72;;;11.22;100.00
57827;BME280;43656;57.746;11.780;2023-03-24T09:36:16;98464.88;;;11.09;100.00
57827;BME280;43656;57.746;11.780;2023-03-24T09:38:42;98458.97;;;11.12;100.00
57827;BME280;43656;57.746;11.780;2023-03-24T09:41:16;98434.13;;;10.90;100.00
57827;BME280;43656;57.746;11.780;2023-03-24T09:46:14;98440.84;;;10.92;100.00
57827;BME280;43656;57.746;11.780;2023-03-24T09:48:46;98433.56;;;10.88;100.00
57827;BME280;43656;57.746;11.780;2023-03-24T09:51:29;98436.75;;;10.79;100.00
57827;BME280;43656;57.746;11.780;2023-03-24T09:54:30;98431.59;;;10.78;100.00
57827;BME280;43656;57.746;11.780;2023-03-24T09:56:57;98402.00;;;10.73;100.00
57827;BME280;43656;57.746;11.780;2023-03-24T09:59:36;98413.41;;;10.90;100.00
57827;BME280;43656;57.746;11.780;2023-03-24T10:02:10;98409.03;;;10.84;100.00
57827;BME280;43656;57.746;11.780;2023-03-24T10:04:36;98403.69;;;10.89;100.00
57827;BME280;43656;57.746;11.780;2023-03-24T10:07:14;98392.00;;;10.68;100.00
57827;BME280;43656;57.746;11.780;2023-03-24T10:09:43;98374.25;;;10.67;100.00
57827;BME280;43656;57.746;11.780;2023-03-24T10:12:24;98311.66;;;10.34;100.00
57827;BME280;43656;57.746;11.780;2023-03-24T10:18:01;98391.03;;;10.85;100.00
57827;BME280;43656;57.746;11.780;2023-03-24T10:23:30;98388.44;;;11.00;100.00
57827;BME280;43656;57.746;11.780;2023-03-24T10:28:26;98385.19;;;10.98;100.00
57827;BME280;43656;57.746;11.780;2023-03-24T10:30:59;98375.50;;;11.02;100.00
57827;BME280;43656;57.746;11.780;2023-03-24T10:33:27;98374.94;;;10.95;100.00
57827;BME280;43656;57.746;11.780;2023-03-24T10:36:01;98374.06;;;10.84;100.00
57827;BME280;43656;57.746;11.780;2023-03-24T10:38:28;98371.09;;;10.86;100.00
57827;BME280;43656;57.746;11.780;2023-03-24T10:40:53;98363.69;;;11.03;100.00
57827;BME280;43656;57.746;11.780;2023-03-24T10:43:20;98370.06;;;10.87;100.00
57827;BME280;43656;57.746;11.780;2023-03-24T10:45:50;98365.47;;;10.87;100.00
57827;BME280;43656;57.746;11.780;2023-03-24T10:51:03;98350.00;;;10.62;100.00
57827;BME280;43656;57.746;11.780;2023-03-24T10:53:30;98367.66;;;10.90;100.00
57827;BME280;43656;57.746;11.780;2023-03-24T10:55:55;98361.56;;;11.10;100.00
57827;BME280;43656;57.746;11.780;2023-03-24T10:58:27;98365.38;;;11.24;100.00
57827;BME280;43656;57.746;11.780;2023-03-24T11:00:53;98341.66;;;11.11;100.00
57827;BME280;43656;57.746;11.780;2023-03-24T11:03:27;98363.00;;;11.33;100.00
57827;BME280;43656;57.746;11.780;2023-03-24T11:06:01;98378.34;;;11.33;100.00
57827;BME280;43656;57.746;11.780;2023-03-24T11:10:56;98356.31;;;11.51;100.00
57827;BME280;43656;57.746;11.780;2023-03-24T11:16:10;98388.81;;;12.02;100.00
57827;BME280;43656;57.746;11.780;2023-03-24T11:18:36;98372.34;;;11.98;100.00
57827;BME280;43656;57.746;11.780;2023-03-24T11:21:04;98373.94;;;11.94;100.00
57827;BME280;43656;57.746;11.780;2023-03-24T11:26:10;98395.81;;;12.03;100.00
57827;BME280;43656;57.746;11.780;2023-03-24T11:28:46;98390.66;;;11.91;100.00
57827;BME280;43656;57.746;11.780;2023-03-24T11:31:13;98402.53;;;12.01;100.00
57827;BME280;43656;57.746;11.780;2023-03-24T11:34:00;98390.34;;;11.83;100.00
57827;BME280;43656;57.746;11.780;2023-03-24T11:39:01;98369.84;;;11.66;100.00
57827;BME280;43656;57.746;11.780;2023-03-24T11:41:28;98394.38;;;11.80;100.00
57827;BME280;43656;57.746;11.780;2023-03-24T11:46:40;98373.63;;;11.75;100.00
57827;BME280;43656;57.746;11.780;2023-03-24T11:49:08;98403.88;;;11.93;100.00
57827;BME280;43656;57.746;11.780;2023-03-24T11:51:38;98393.34;;;11.91;100.00
57827;BME280;43656;57.746;11.780;2023-03-24T11:54:17;98393.06;;;11.88;100.00
57827;BME280;43656;57.746;11.780;2023-03-24T11:56:45;98393.59;;;11.85;100.00
57827;BME280;43656;57.746;11.780;2023-03-24T11:59:26;98395.75;;;11.83;100.00
57827;BME280;43656;57.746;11.780;2023-03-24T12:02:02;98394.63;;;11.79;100.00
57827;BME280;43656;57.746;11.780;2023-03-24T12:13:35;98394.09;;;11.66;100.00
57827;BME280;43656;57.746;11.780;2023-03-24T12:16:07;98383.03;;;11.68;100.00
57827;BME280;43656;57.746;11.780;2023-03-24T12:18:42;98390.84;;;11.74;100.00
57827;BME280;43656;57.746;11.780;2023-03-24T12:26:29;98394.34;;;11.65;100.00
57827;BME280;43656;57.746;11.780;2023-03-24T12:31:39;98372.75;;;11.49;100.00
57827;BME280;43656;57.746;11.780;2023-03-24T12:42:39;98426.34;;;10.98;100.00
57827;BME280;43656;57.746;11.780;2023-03-24T12:56:00;98538.44;;;10.06;100.00
57827;BME280;43656;57.746;11.780;2023-03-24T13:03:41;98568.38;;;9.93;100.00
57827;BME280;43656;57.746;11.780;2023-03-24T13:06:26;98588.63;;;10.01;100.00
57827;BME280;43656;57.746;11.780;2023-03-24T13:11:44;98595.81;;;10.17;100.00
57827;BME280;43656;57.746;11.780;2023-03-24T13:14:15;98583.72;;;10.20;100.00
57827;BME280;43656;57.746;11.780;2023-03-24T13:16:45;98589.59;;;10.33;100.00
57827;BME280;43656;57.746;11.780;2023-03-24T13:19:18;98607.94;;;10.42;100.00
57827;BME280;43656;57.746;11.780;2023-03-24T13:21:45;98606.94;;;10.48;100.00
57827;BME280;43656;57.746;11.780;2023-03-24T13:24:12;98620.25;;;10.60;100.00
57827;BME280;43656;57.746;11.780;2023-03-24T13:34:56;98633.75;;;10.92;100.00
57827;BME280;43656;57.746;11.780;2023-03-24T13:37:24;98649.53;;;11.10;100.00
57827;BME280;43656;57.746;11.780;2023-03-24T13:39:55;98617.59;;;10.92;100.00
57827;BME280;43656;57.746;11.780;2023-03-24T13:44:58;98660.34;;;11.15;100.00
57827;BME280;43656;57.746;11.780;2023-03-24T13:47:25;98665.94;;;11.09;100.00
57827;BME280;43656;57.746;11.780;2023-03-24T13:50:10;98666.94;;;11.02;100.00
57827;BME280;43656;57.746;11.780;2023-03-24T13:52:39;98664.13;;;10.87;100.00
57827;BME280;43656;57.746;11.780;2023-03-24T13:55:15;98668.94;;;10.85;100.00
57827;BME280;43656;57.746;11.780;2023-03-24T13:57:56;98671.31;;;10.81;100.00
57827;BME280;43656;57.746;11.780;2023-03-24T14:00:25;98693.03;;;10.75;100.00
57827;BME280;43656;57.746;11.780;2023-03-24T14:02:51;98691.47;;;10.79;100.00
57827;BME280;43656;57.746;11.780;2023-03-24T14:08:14;98712.56;;;10.65;100.00
57827;BME280;43656;57.746;11.780;2023-03-24T14:10:46;98705.59;;;10.69;100.00
57827;BME280;43656;57.746;11.780;2023-03-24T14:15:44;98714.88;;;10.78;100.00
57827;BME280;43656;57.746;11.780;2023-03-24T14:21:02;98713.44;;;10.71;100.00
57827;BME280;43656;57.746;11.780;2023-03-24T14:25:55;98713.31;;;10.61;100.00
57827;BME280;43656;57.746;11.780;2023-03-24T14:28:41;98718.50;;;10.67;100.00
57827;BME280;43656;57.746;11.780;2023-03-24T14:34:12;98719.63;;;10.71;100.00
57827;BME280;43656;57.746;11.780;2023-03-24T14:36:40;98719.19;;;10.79;100.00
57827;BME280;43656;57.746;11.780;2023-03-24T14:39:33;98714.94;;;10.62;100.00
57827;BME280;43656;57.746;11.780;2023-03-24T14:42:00;98723.44;;;10.75;100.00
57827;BME280;43656;57.746;11.780;2023-03-24T14:47:37;98726.38;;;10.74;100.00
57827;BME280;43656;57.746;11.780;2023-03-24T14:50:18;98724.97;;;10.66;100.00
57827;BME280;43656;57.746;11.780;2023-03-24T14:52:49;98717.50;;;10.73;100.00
57827;BME280;43656;57.746;11.780;2023-03-24T14:55:16;98727.56;;;10.83;100.00
57827;BME280;43656;57.746;11.780;2023-03-24T14:57:46;98732.31;;;10.76;100.00
57827;BME280;43656;57.746;11.780;2023-03-24T15:02:49;98719.88;;;10.70;100.00
57827;BME280;43656;57.746;11.780;2023-03-24T15:13:42;98740.84;;;10.68;100.00
57827;BME280;43656;57.746;11.780;2023-03-24T15:21:38;98760.28;;;10.75;100.00
57827;BME280;43656;57.746;11.780;2023-03-24T15:26:47;98748.63;;;10.69;100.00
57827;BME280;43656;57.746;11.780;2023-03-24T15:29:13;98756.28;;;10.77;100.00
57827;BME280;43656;57.746;11.780;2023-03-24T15:31:38;98750.22;;;10.87;100.00
57827;BME280;43656;57.746;11.780;2023-03-24T15:36:55;98767.75;;;10.90;100.00
57827;BME280;43656;57.746;11.780;2023-03-24T15:39:27;98754.47;;;10.83;100.00
57827;BME280;43656;57.746;11.780;2023-03-24T15:41:53;98772.22;;;10.62;100.00
57827;BME280;43656;57.746;11.780;2023-03-24T15:44:23;98767.41;;;10.64;100.00
57827;BME280;43656;57.746;11.780;2023-03-24T15:46:49;98778.44;;;10.85;100.00